sensor_id;sensor_type;location;lat;lon;timestamp;temperature;humidity
19039;DHT22;9652;49.014;12.052;2023-04-24T00:01:10;15.30;81.80
19039;DHT22;9652;49.014;12.052;2023-04-24T00:03:39;15.30;81.90
19039;DHT22;9652;49.014;12.052;2023-04-24T00:06:07;15.30;82.10
19039;DHT22;9652;49.014;12.052;2023-04-24T00:08:34;15.30;82.00
19039;DHT22;9652;49.014;12.052;2023-04-24T00:11:01;15.30;82.10
19039;DHT22;9652;49.014;12.052;2023-04-24T00:13:28;15.30;82.10
19039;DHT22;9652;49.014;12.052;2023-04-24T00:15:55;15.30;82.10
19039;DHT22;9652;49.014;12.052;2023-04-24T00:18:23;15.20;82.00
19039;DHT22;9652;49.014;12.052;2023-04-24T00:20:51;15.20;82.10
19039;DHT22;9652;49.014;12.052;2023-04-24T00:23:18;15.20;82.30
19039;DHT22;9652;49.014;12.052;2023-04-24T00:25:45;15.20;82.20
19039;DHT22;9652;49.014;12.052;2023-04-24T00:28:12;15.20;82.30
19039;DHT22;9652;49.014;12.052;2023-04-24T00:30:40;15.30;82.60
19039;DHT22;9652;49.014;12.052;2023-04-24T00:33:07;15.20;82.50
19039;DHT22;9652;49.014;12.052;2023-04-24T00:35:34;15.20;82.40
19039;DHT22;9652;49.014;12.052;2023-04-24T00:38:02;15.20;82.50
19039;DHT22;9652;49.014;12.052;2023-04-24T00:40:30;15.20;82.50
19039;DHT22;9652;49.014;12.052;2023-04-24T00:42:57;15.20;82.70
19039;DHT22;9652;49.014;12.052;2023-04-24T00:45:24;15.20;82.80
19039;DHT22;9652;49.014;12.052;2023-04-24T00:47:52;15.20;82.90
19039;DHT22;9652;49.014;12.052;2023-04-24T00:50:20;15.20;83.00
19039;DHT22;9652;49.014;12.052;2023-04-24T00:52:48;15.20;83.00
19039;DHT22;9652;49.014;12.052;2023-04-24T00:55:16;15.30;83.00
19039;DHT22;9652;49.014;12.052;2023-04-24T00:57:44;15.20;82.90
19039;DHT22;9652;49.014;12.052;2023-04-24T01:00:12;15.20;83.00
19039;DHT22;9652;49.014;12.052;2023-04-24T01:02:43;15.30;83.10
19039;DHT22;9652;49.014;12.052;2023-04-24T01:05:11;15.20;83.00
19039;DHT22;9652;49.014;12.052;2023-04-24T01:07:39;15.20;82.80
19039;DHT22;9652;49.014;12.052;2023-04-24T01:10:10;15.20;82.80
19039;DHT22;9652;49.014;12.052;2023-04-24T01:12:39;15.20;83.00
19039;DHT22;9652;49.014;12.052;2023-04-24T01:15:07;15.20;83.20
19039;DHT22;9652;49.014;12.052;2023-04-24T01:17:35;15.20;83.20
19039;DHT22;9652;49.014;12.052;2023-04-24T01:20:03;15.20;83.30
19039;DHT22;9652;49.014;12.052;2023-04-24T01:22:33;15.20;83.30
19039;DHT22;9652;49.014;12.052;2023-04-24T01:25:00;15.20;83.50
19039;DHT22;9652;49.014;12.052;2023-04-24T01:27:29;15.20;83.60
19039;DHT22;9652;49.014;12.052;2023-04-24T01:29:56;15.20;83.50
19039;DHT22;9652;49.014;12.052;2023-04-24T01:32:24;15.20;83.50
19039;DHT22;9652;49.014;12.052;2023-04-24T01:34:51;15.20;83.50
19039;DHT22;9652;49.014;12.052;2023-04-24T01:37:19;15.30;83.60
19039;DHT22;9652;49.014;12.052;2023-04-24T01:39:47;15.20;83.50
19039;DHT22;9652;49.014;12.052;2023-04-24T01:42:14;15.20;83.50
19039;DHT22;9652;49.014;12.052;2023-04-24T01:44:42;15.20;83.50
19039;DHT22;9652;49.014;12.052;2023-04-24T01:47:10;15.20;83.50
19039;DHT22;9652;49.014;12.052;2023-04-24T01:49:38;15.20;83.40
19039;DHT22;9652;49.014;12.052;2023-04-24T01:52:05;15.20;83.40
19039;DHT22;9652;49.014;12.052;2023-04-24T01:54:33;15.20;83.30
19039;DHT22;9652;49.014;12.052;2023-04-24T01:57:02;15.20;83.30
19039;DHT22;9652;49.014;12.052;2023-04-24T01:59:30;15.20;83.20
19039;DHT22;9652;49.014;12.052;2023-04-24T02:01:59;15.10;83.10
19039;DHT22;9652;49.014;12.052;2023-04-24T02:04:26;15.10;83.30
19039;DHT22;9652;49.014;12.052;2023-04-24T02:06:54;15.10;83.30
19039;DHT22;9652;49.014;12.052;2023-04-24T02:09:21;15.10;83.50
19039;DHT22;9652;49.014;12.052;2023-04-24T02:11:48;15.10;83.50
19039;DHT22;9652;49.014;12.052;2023-04-24T02:14:16;15.10;83.70
19039;DHT22;9652;49.014;12.052;2023-04-24T02:16:43;15.10;83.80
19039;DHT22;9652;49.014;12.052;2023-04-24T02:19:11;15.00;83.70
19039;DHT22;9652;49.014;12.052;2023-04-24T02:21:38;15.00;83.60
19039;DHT22;9652;49.014;12.052;2023-04-24T02:24:08;15.00;83.70
19039;DHT22;9652;49.014;12.052;2023-04-24T02:26:35;15.00;83.80
19039;DHT22;9652;49.014;12.052;2023-04-24T02:29:02;15.10;83.90
19039;DHT22;9652;49.014;12.052;2023-04-24T02:31:30;15.00;83.90
19039;DHT22;9652;49.014;12.052;2023-04-24T02:33:57;15.00;84.00
19039;DHT22;9652;49.014;12.052;2023-04-24T02:36:24;15.10;84.10
19039;DHT22;9652;49.014;12.052;2023-04-24T02:38:51;15.00;83.90
19039;DHT22;9652;49.014;12.052;2023-04-24T02:41:18;15.00;83.90
19039;DHT22;9652;49.014;12.052;2023-04-24T02:43:45;15.00;83.90
19039;DHT22;9652;49.014;12.052;2023-04-24T02:46:13;15.00;83.80
19039;DHT22;9652;49.014;12.052;2023-04-24T02:48:41;15.00;83.80
19039;DHT22;9652;49.014;12.052;2023-04-24T02:51:08;15.00;83.80
19039;DHT22;9652;49.014;12.052;2023-04-24T02:53:35;15.00;83.80
19039;DHT22;9652;49.014;12.052;2023-04-24T02:56:02;15.00;83.80
19039;DHT22;9652;49.014;12.052;2023-04-24T02:58:30;15.00;83.80
19039;DHT22;9652;49.014;12.052;2023-04-24T03:00:57;15.00;83.80
19039;DHT22;9652;49.014;12.052;2023-04-24T03:03:24;15.00;83.70
19039;DHT22;9652;49.014;12.052;2023-04-24T03:05:53;14.90;83.50
19039;DHT22;9652;49.014;12.052;2023-04-24T03:08:20;14.90;83.50
19039;DHT22;9652;49.014;12.052;2023-04-24T03:10:48;14.90;83.70
19039;DHT22;9652;49.014;12.052;2023-04-24T03:13:15;14.80;83.70
19039;DHT22;9652;49.014;12.052;2023-04-24T03:15:43;14.90;83.80
19039;DHT22;9652;49.014;12.052;2023-04-24T03:18:10;14.90;83.90
19039;DHT22;9652;49.014;12.052;2023-04-24T03:20:37;14.90;83.90
19039;DHT22;9652;49.014;12.052;2023-04-24T03:23:06;14.90;83.90
19039;DHT22;9652;49.014;12.052;2023-04-24T03:25:33;14.90;84.00
19039;DHT22;9652;49.014;12.052;2023-04-24T03:28:01;14.90;83.80
19039;DHT22;9652;49.014;12.052;2023-04-24T03:30:39;14.80;83.70
19039;DHT22;9652;49.014;12.052;2023-04-24T03:33:07;14.80;83.60
19039;DHT22;9652;49.014;12.052;2023-04-24T03:35:38;14.80;84.40
19039;DHT22;9652;49.014;12.052;2023-04-24T03:38:10;14.80;83.60
19039;DHT22;9652;49.014;12.052;2023-04-24T03:40:54;14.80;83.70
19039;DHT22;9652;49.014;12.052;2023-04-24T03:43:57;14.80;83.50
19039;DHT22;9652;49.014;12.052;2023-04-24T03:46:24;14.70;83.60
19039;DHT22;9652;49.014;12.052;2023-04-24T03:48:56;14.70;83.70
19039;DHT22;9652;49.014;12.052;2023-04-24T03:51:27;14.70;83.70
19039;DHT22;9652;49.014;12.052;2023-04-24T03:54:03;14.70;83.70
19039;DHT22;9652;49.014;12.052;2023-04-24T03:56:33;14.70;83.80
19039;DHT22;9652;49.014;12.052;2023-04-24T03:59:01;14.70;83.70
19039;DHT22;9652;49.014;12.052;2023-04-24T04:01:29;14.60;83.80
19039;DHT22;9652;49.014;12.052;2023-04-24T04:04:06;14.60;83.80
19039;DHT22;9652;49.014;12.052;2023-04-24T04:06:36;14.60;83.80
19039;DHT22;9652;49.014;12.052;2023-04-24T04:09:04;14.50;83.90
19039;DHT22;9652;49.014;12.052;2023-04-24T04:11:32;14.60;84.00
19039;DHT22;9652;49.014;12.052;2023-04-24T04:14:00;14.50;84.00
19039;DHT22;9652;49.014;12.052;2023-04-24T04:16:28;14.50;84.10
19039;DHT22;9652;49.014;12.052;2023-04-24T04:19:01;14.50;84.20
19039;DHT22;9652;49.014;12.052;2023-04-24T04:21:29;14.50;84.30
19039;DHT22;9652;49.014;12.052;2023-04-24T04:24:10;14.50;84.40
19039;DHT22;9652;49.014;12.052;2023-04-24T04:26:41;14.50;85.30
19039;DHT22;9652;49.014;12.052;2023-04-24T04:29:18;14.50;84.40
19039;DHT22;9652;49.014;12.052;2023-04-24T04:31:47;14.50;84.50
19039;DHT22;9652;49.014;12.052;2023-04-24T04:34:14;14.50;84.50
19039;DHT22;9652;49.014;12.052;2023-04-24T04:36:41;14.50;84.60
19039;DHT22;9652;49.014;12.052;2023-04-24T04:39:31;14.50;84.70
19039;DHT22;9652;49.014;12.052;2023-04-24T04:42:02;14.50;84.70
19039;DHT22;9652;49.014;12.052;2023-04-24T04:44:41;14.50;84.70
19039;DHT22;9652;49.014;12.052;2023-04-24T04:47:12;14.50;84.70
19039;DHT22;9652;49.014;12.052;2023-04-24T04:49:40;14.50;84.70
19039;DHT22;9652;49.014;12.052;2023-04-24T04:52:15;14.50;84.70
19039;DHT22;9652;49.014;12.052;2023-04-24T04:54:45;14.50;84.80
19039;DHT22;9652;49.014;12.052;2023-04-24T04:57:13;14.50;84.70
19039;DHT22;9652;49.014;12.052;2023-04-24T04:59:40;14.50;84.70
19039;DHT22;9652;49.014;12.052;2023-04-24T05:02:13;14.50;84.90
19039;DHT22;9652;49.014;12.052;2023-04-24T05:04:41;14.50;85.00
19039;DHT22;9652;49.014;12.052;2023-04-24T05:07:08;14.50;85.00
19039;DHT22;9652;49.014;12.052;2023-04-24T05:09:39;14.50;85.00
19039;DHT22;9652;49.014;12.052;2023-04-24T05:12:07;14.40;85.00
19039;DHT22;9652;49.014;12.052;2023-04-24T05:14:41;14.50;85.10
19039;DHT22;9652;49.014;12.052;2023-04-24T05:17:11;14.50;85.20
19039;DHT22;9652;49.014;12.052;2023-04-24T05:19:38;14.50;85.30
19039;DHT22;9652;49.014;12.052;2023-04-24T05:22:06;14.50;85.30
19039;DHT22;9652;49.014;12.052;2023-04-24T05:24:41;14.50;85.30
19039;DHT22;9652;49.014;12.052;2023-04-24T05:27:36;14.50;85.40
19039;DHT22;9652;49.014;12.052;2023-04-24T05:30:09;14.60;85.50
19039;DHT22;9652;49.014;12.052;2023-04-24T05:32:36;14.60;85.50
19039;DHT22;9652;49.014;12.052;2023-04-24T05:35:05;14.60;85.50
19039;DHT22;9652;49.014;12.052;2023-04-24T05:37:32;14.60;85.50
19039;DHT22;9652;49.014;12.052;2023-04-24T05:39:59;14.70;85.50
19039;DHT22;9652;49.014;12.052;2023-04-24T05:42:26;14.70;85.60
19039;DHT22;9652;49.014;12.052;2023-04-24T05:44:55;14.70;85.70
19039;DHT22;9652;49.014;12.052;2023-04-24T05:47:22;14.70;85.80
19039;DHT22;9652;49.014;12.052;2023-04-24T05:49:51;14.70;85.90
19039;DHT22;9652;49.014;12.052;2023-04-24T05:52:18;14.80;86.20
19039;DHT22;9652;49.014;12.052;2023-04-24T05:54:45;14.80;86.20
19039;DHT22;9652;49.014;12.052;2023-04-24T05:57:17;14.80;86.10
19039;DHT22;9652;49.014;12.052;2023-04-24T05:59:52;14.80;86.20
19039;DHT22;9652;49.014;12.052;2023-04-24T06:02:22;14.80;86.30
19039;DHT22;9652;49.014;12.052;2023-04-24T06:04:50;14.90;86.50
19039;DHT22;9652;49.014;12.052;2023-04-24T06:07:17;14.90;86.60
19039;DHT22;9652;49.014;12.052;2023-04-24T06:09:44;14.90;86.70
19039;DHT22;9652;49.014;12.052;2023-04-24T06:12:11;15.00;87.00
19039;DHT22;9652;49.014;12.052;2023-04-24T06:14:59;15.00;87.20
19039;DHT22;9652;49.014;12.052;2023-04-24T06:17:47;15.20;87.40
19039;DHT22;9652;49.014;12.052;2023-04-24T06:20:16;15.20;87.30
19039;DHT22;9652;49.014;12.052;2023-04-24T06:22:43;15.30;87.30
19039;DHT22;9652;49.014;12.052;2023-04-24T06:25:10;15.30;87.10
19039;DHT22;9652;49.014;12.052;2023-04-24T06:27:38;15.40;87.10
19039;DHT22;9652;49.014;12.052;2023-04-24T06:30:08;15.40;87.00
19039;DHT22;9652;49.014;12.052;2023-04-24T06:32:36;15.40;87.20
19039;DHT22;9652;49.014;12.052;2023-04-24T06:35:06;15.50;87.50
19039;DHT22;9652;49.014;12.052;2023-04-24T06:37:35;15.50;87.60
19039;DHT22;9652;49.014;12.052;2023-04-24T06:40:03;15.60;87.70
19039;DHT22;9652;49.014;12.052;2023-04-24T06:42:31;15.70;87.80
19039;DHT22;9652;49.014;12.052;2023-04-24T06:44:58;15.70;87.70
19039;DHT22;9652;49.014;12.052;2023-04-24T06:47:25;15.80;87.80
19039;DHT22;9652;49.014;12.052;2023-04-24T06:49:52;15.80;87.70
19039;DHT22;9652;49.014;12.052;2023-04-24T06:52:21;15.90;87.70
19039;DHT22;9652;49.014;12.052;2023-04-24T06:54:49;16.00;88.00
19039;DHT22;9652;49.014;12.052;2023-04-24T06:57:16;16.10;87.90
19039;DHT22;9652;49.014;12.052;2023-04-24T06:59:42;16.20;87.90
19039;DHT22;9652;49.014;12.052;2023-04-24T07:02:09;16.20;88.00
19039;DHT22;9652;49.014;12.052;2023-04-24T07:04:36;16.30;88.10
19039;DHT22;9652;49.014;12.052;2023-04-24T07:07:03;16.40;87.90
19039;DHT22;9652;49.014;12.052;2023-04-24T07:09:33;16.50;87.70
19039;DHT22;9652;49.014;12.052;2023-04-24T07:12:04;16.50;87.40
19039;DHT22;9652;49.014;12.052;2023-04-24T07:14:31;16.60;87.20
19039;DHT22;9652;49.014;12.052;2023-04-24T07:16:58;16.60;87.20
19039;DHT22;9652;49.014;12.052;2023-04-24T07:19:25;16.70;87.10
19039;DHT22;9652;49.014;12.052;2023-04-24T07:21:52;16.70;87.00
19039;DHT22;9652;49.014;12.052;2023-04-24T07:24:20;16.80;87.20
19039;DHT22;9652;49.014;12.052;2023-04-24T07:26:49;16.80;87.10
19039;DHT22;9652;49.014;12.052;2023-04-24T07:29:18;16.90;87.40
19039;DHT22;9652;49.014;12.052;2023-04-24T07:31:45;17.00;87.50
19039;DHT22;9652;49.014;12.052;2023-04-24T07:34:12;17.00;87.50
19039;DHT22;9652;49.014;12.052;2023-04-24T07:36:40;17.10;87.40
19039;DHT22;9652;49.014;12.052;2023-04-24T07:39:07;17.20;88.20
19039;DHT22;9652;49.014;12.052;2023-04-24T07:41:34;17.30;87.40
19039;DHT22;9652;49.014;12.052;2023-04-24T07:44:03;17.40;86.80
19039;DHT22;9652;49.014;12.052;2023-04-24T07:46:30;17.40;86.30
19039;DHT22;9652;49.014;12.052;2023-04-24T07:48:57;17.50;86.10
19039;DHT22;9652;49.014;12.052;2023-04-24T07:51:26;17.50;85.80
19039;DHT22;9652;49.014;12.052;2023-04-24T07:53:54;17.60;85.60
19039;DHT22;9652;49.014;12.052;2023-04-24T07:56:21;17.60;85.50
19039;DHT22;9652;49.014;12.052;2023-04-24T07:58:48;17.70;85.60
19039;DHT22;9652;49.014;12.052;2023-04-24T08:01:16;17.80;85.50
19039;DHT22;9652;49.014;12.052;2023-04-24T08:03:43;17.90;84.80
19039;DHT22;9652;49.014;12.052;2023-04-24T08:06:10;18.00;84.50
19039;DHT22;9652;49.014;12.052;2023-04-24T08:08:38;18.10;83.80
19039;DHT22;9652;49.014;12.052;2023-04-24T08:11:05;18.10;83.50
19039;DHT22;9652;49.014;12.052;2023-04-24T08:13:32;18.20;83.40
19039;DHT22;9652;49.014;12.052;2023-04-24T08:15:59;18.30;83.60
19039;DHT22;9652;49.014;12.052;2023-04-24T08:18:27;18.40;82.70
19039;DHT22;9652;49.014;12.052;2023-04-24T08:20:55;18.50;81.80
19039;DHT22;9652;49.014;12.052;2023-04-24T08:23:26;18.70;81.40
19039;DHT22;9652;49.014;12.052;2023-04-24T08:25:54;18.80;80.90
19039;DHT22;9652;49.014;12.052;2023-04-24T08:28:22;18.90;80.40
19039;DHT22;9652;49.014;12.052;2023-04-24T08:30:49;18.90;79.20
19039;DHT22;9652;49.014;12.052;2023-04-24T08:33:19;19.00;77.70
19039;DHT22;9652;49.014;12.052;2023-04-24T08:35:48;18.90;75.60
19039;DHT22;9652;49.014;12.052;2023-04-24T08:38:15;18.60;74.10
19039;DHT22;9652;49.014;12.052;2023-04-24T08:40:43;18.20;73.60
19039;DHT22;9652;49.014;12.052;2023-04-24T08:43:12;17.80;73.90
19039;DHT22;9652;49.014;12.052;2023-04-24T08:45:40;17.30;74.80
19039;DHT22;9652;49.014;12.052;2023-04-24T08:48:07;17.00;75.80
19039;DHT22;9652;49.014;12.052;2023-04-24T08:50:36;16.60;77.10
19039;DHT22;9652;49.014;12.052;2023-04-24T08:53:08;16.30;78.40
19039;DHT22;9652;49.014;12.052;2023-04-24T08:55:36;16.10;79.90
19039;DHT22;9652;49.014;12.052;2023-04-24T08:58:04;16.00;81.30
19039;DHT22;9652;49.014;12.052;2023-04-24T09:00:31;15.90;82.40
19039;DHT22;9652;49.014;12.052;2023-04-24T09:03:00;15.80;83.30
19039;DHT22;9652;49.014;12.052;2023-04-24T09:05:28;15.80;84.00
19039;DHT22;9652;49.014;12.052;2023-04-24T09:07:57;15.90;84.50
19039;DHT22;9652;49.014;12.052;2023-04-24T09:10:27;15.90;84.80
19039;DHT22;9652;49.014;12.052;2023-04-24T09:12:56;15.90;85.00
19039;DHT22;9652;49.014;12.052;2023-04-24T09:15:27;16.00;84.80
19039;DHT22;9652;49.014;12.052;2023-04-24T09:17:55;16.00;85.00
19039;DHT22;9652;49.014;12.052;2023-04-24T09:20:22;16.10;85.50
19039;DHT22;9652;49.014;12.052;2023-04-24T09:22:53;16.10;86.50
19039;DHT22;9652;49.014;12.052;2023-04-24T09:25:21;16.30;88.00
19039;DHT22;9652;49.014;12.052;2023-04-24T09:27:53;16.40;87.20
19039;DHT22;9652;49.014;12.052;2023-04-24T09:30:21;16.50;87.20
19039;DHT22;9652;49.014;12.052;2023-04-24T09:32:49;16.60;86.90
19039;DHT22;9652;49.014;12.052;2023-04-24T09:35:16;16.70;86.40
19039;DHT22;9652;49.014;12.052;2023-04-24T09:37:46;16.70;85.90
19039;DHT22;9652;49.014;12.052;2023-04-24T09:40:16;16.80;85.20
19039;DHT22;9652;49.014;12.052;2023-04-24T09:42:45;16.80;85.20
19039;DHT22;9652;49.014;12.052;2023-04-24T09:45:19;16.80;85.90
19039;DHT22;9652;49.014;12.052;2023-04-24T09:47:51;16.90;86.70
19039;DHT22;9652;49.014;12.052;2023-04-24T09:50:19;17.00;87.50
19039;DHT22;9652;49.014;12.052;2023-04-24T09:52:57;17.10;87.90
19039;DHT22;9652;49.014;12.052;2023-04-24T09:55:26;17.30;88.30
19039;DHT22;9652;49.014;12.052;2023-04-24T09:57:54;17.40;87.70
19039;DHT22;9652;49.014;12.052;2023-04-24T10:00:25;17.50;86.80
19039;DHT22;9652;49.014;12.052;2023-04-24T10:02:55;17.60;86.50
19039;DHT22;9652;49.014;12.052;2023-04-24T10:05:24;17.70;86.60
19039;DHT22;9652;49.014;12.052;2023-04-24T10:07:57;17.70;86.20
19039;DHT22;9652;49.014;12.052;2023-04-24T10:10:26;17.80;85.50
19039;DHT22;9652;49.014;12.052;2023-04-24T10:12:54;17.90;85.00
19039;DHT22;9652;49.014;12.052;2023-04-24T10:15:21;17.80;84.90
19039;DHT22;9652;49.014;12.052;2023-04-24T10:17:51;17.80;84.70
19039;DHT22;9652;49.014;12.052;2023-04-24T10:20:20;17.80;83.80
19039;DHT22;9652;49.014;12.052;2023-04-24T10:22:49;17.80;83.80
19039;DHT22;9652;49.014;12.052;2023-04-24T10:25:18;17.80;84.20
19039;DHT22;9652;49.014;12.052;2023-04-24T10:27:47;17.90;83.20
19039;DHT22;9652;49.014;12.052;2023-04-24T10:30:16;17.90;82.50
19039;DHT22;9652;49.014;12.052;2023-04-24T10:32:44;17.80;81.80
19039;DHT22;9652;49.014;12.052;2023-04-24T10:35:14;17.80;81.50
19039;DHT22;9652;49.014;12.052;2023-04-24T10:37:45;17.80;80.80
19039;DHT22;9652;49.014;12.052;2023-04-24T10:40:18;17.70;80.90
19039;DHT22;9652;49.014;12.052;2023-04-24T10:42:47;17.80;78.60
19039;DHT22;9652;49.014;12.052;2023-04-24T10:45:18;17.80;79.90
19039;DHT22;9652;49.014;12.052;2023-04-24T10:48:08;17.90;79.80
19039;DHT22;9652;49.014;12.052;2023-04-24T10:50:44;17.90;78.30
19039;DHT22;9652;49.014;12.052;2023-04-24T10:53:14;18.10;78.80
19039;DHT22;9652;49.014;12.052;2023-04-24T10:55:45;18.20;79.90
19039;DHT22;9652;49.014;12.052;2023-04-24T10:58:14;18.30;79.00
19039;DHT22;9652;49.014;12.052;2023-04-24T11:00:43;18.50;78.90
19039;DHT22;9652;49.014;12.052;2023-04-24T11:03:25;18.60;76.80
19039;DHT22;9652;49.014;12.052;2023-04-24T11:05:56;18.70;73.60
19039;DHT22;9652;49.014;12.052;2023-04-24T11:08:27;18.80;74.60
19039;DHT22;9652;49.014;12.052;2023-04-24T11:11:00;18.80;74.30
19039;DHT22;9652;49.014;12.052;2023-04-24T11:14:01;18.90;72.40
19039;DHT22;9652;49.014;12.052;2023-04-24T11:16:43;18.90;69.90
19039;DHT22;9652;49.014;12.052;2023-04-24T11:19:20;18.90;71.90
19039;DHT22;9652;49.014;12.052;2023-04-24T11:21:56;18.90;69.70
19039;DHT22;9652;49.014;12.052;2023-04-24T11:24:37;18.90;68.80
19039;DHT22;9652;49.014;12.052;2023-04-24T11:27:14;18.90;68.60
19039;DHT22;9652;49.014;12.052;2023-04-24T11:29:45;18.90;69.40
19039;DHT22;9652;49.014;12.052;2023-04-24T11:32:35;18.80;68.30
19039;DHT22;9652;49.014;12.052;2023-04-24T11:35:05;18.70;66.00
19039;DHT22;9652;49.014;12.052;2023-04-24T11:37:36;18.50;67.00
19039;DHT22;9652;49.014;12.052;2023-04-24T11:40:05;18.30;66.20
19039;DHT22;9652;49.014;12.052;2023-04-24T11:42:34;18.00;66.70
19039;DHT22;9652;49.014;12.052;2023-04-24T11:45:06;17.70;67.60
19039;DHT22;9652;49.014;12.052;2023-04-24T11:47:34;17.60;68.80
19039;DHT22;9652;49.014;12.052;2023-04-24T11:50:03;17.40;70.00
19039;DHT22;9652;49.014;12.052;2023-04-24T11:52:32;17.40;70.20
19039;DHT22;9652;49.014;12.052;2023-04-24T11:55:05;17.40;71.20
19039;DHT22;9652;49.014;12.052;2023-04-24T11:57:34;17.50;70.60
19039;DHT22;9652;49.014;12.052;2023-04-24T12:00:03;17.60;70.40
19039;DHT22;9652;49.014;12.052;2023-04-24T12:02:37;17.70;70.40
19039;DHT22;9652;49.014;12.052;2023-04-24T12:05:06;17.80;69.90
19039;DHT22;9652;49.014;12.052;2023-04-24T12:07:40;17.90;68.90
19039;DHT22;9652;49.014;12.052;2023-04-24T12:10:09;18.10;66.60
19039;DHT22;9652;49.014;12.052;2023-04-24T12:12:36;18.20;67.70
19039;DHT22;9652;49.014;12.052;2023-04-24T12:15:07;18.20;66.70
19039;DHT22;9652;49.014;12.052;2023-04-24T12:17:35;18.30;66.40
19039;DHT22;9652;49.014;12.052;2023-04-24T12:20:04;18.40;67.60
19039;DHT22;9652;49.014;12.052;2023-04-24T12:22:47;18.60;67.30
19039;DHT22;9652;49.014;12.052;2023-04-24T12:25:17;18.80;64.80
19039;DHT22;9652;49.014;12.052;2023-04-24T12:27:45;18.90;65.00
19039;DHT22;9652;49.014;12.052;2023-04-24T12:30:14;19.00;65.10
19039;DHT22;9652;49.014;12.052;2023-04-24T12:32:44;19.10;63.50
19039;DHT22;9652;49.014;12.052;2023-04-24T12:35:13;19.10;63.30
19039;DHT22;9652;49.014;12.052;2023-04-24T12:37:42;19.20;63.40
19039;DHT22;9652;49.014;12.052;2023-04-24T12:40:13;19.30;61.70
19039;DHT22;9652;49.014;12.052;2023-04-24T12:42:42;19.40;62.30
19039;DHT22;9652;49.014;12.052;2023-04-24T12:45:11;19.50;62.50
19039;DHT22;9652;49.014;12.052;2023-04-24T12:47:40;19.60;62.00
19039;DHT22;9652;49.014;12.052;2023-04-24T12:50:08;19.80;62.00
19039;DHT22;9652;49.014;12.052;2023-04-24T12:52:37;19.90;61.40
19039;DHT22;9652;49.014;12.052;2023-04-24T12:55:06;20.00;60.90
19039;DHT22;9652;49.014;12.052;2023-04-24T12:57:37;20.10;60.00
19039;DHT22;9652;49.014;12.052;2023-04-24T13:00:07;20.20;59.30
19039;DHT22;9652;49.014;12.052;2023-04-24T13:02:35;20.30;58.20
19039;DHT22;9652;49.014;12.052;2023-04-24T13:05:02;20.30;57.40
19039;DHT22;9652;49.014;12.052;2023-04-24T13:07:29;20.20;57.30
19039;DHT22;9652;49.014;12.052;2023-04-24T13:09:56;20.00;57.00
19039;DHT22;9652;49.014;12.052;2023-04-24T13:12:24;19.90;56.80
19039;DHT22;9652;49.014;12.052;2023-04-24T13:14:53;19.70;55.60
19039;DHT22;9652;49.014;12.052;2023-04-24T13:17:21;19.50;56.00
19039;DHT22;9652;49.014;12.052;2023-04-24T13:19:49;19.30;56.50
19039;DHT22;9652;49.014;12.052;2023-04-24T13:22:17;19.20;56.60
19039;DHT22;9652;49.014;12.052;2023-04-24T13:24:45;19.10;56.50
19039;DHT22;9652;49.014;12.052;2023-04-24T13:27:14;19.10;57.00
19039;DHT22;9652;49.014;12.052;2023-04-24T13:29:41;19.10;57.10
19039;DHT22;9652;49.014;12.052;2023-04-24T13:32:10;19.20;56.20
19039;DHT22;9652;49.014;12.052;2023-04-24T13:34:37;19.30;56.10
19039;DHT22;9652;49.014;12.052;2023-04-24T13:37:05;19.30;56.10
19039;DHT22;9652;49.014;12.052;2023-04-24T13:39:33;19.50;56.60
19039;DHT22;9652;49.014;12.052;2023-04-24T13:42:00;19.50;56.10
19039;DHT22;9652;49.014;12.052;2023-04-24T13:44:27;19.80;56.30
19039;DHT22;9652;49.014;12.052;2023-04-24T13:46:55;19.80;55.60
19039;DHT22;9652;49.014;12.052;2023-04-24T13:49:25;19.90;55.90
19039;DHT22;9652;49.014;12.052;2023-04-24T13:51:53;20.10;54.50
19039;DHT22;9652;49.014;12.052;2023-04-24T13:54:21;20.30;54.00
19039;DHT22;9652;49.014;12.052;2023-04-24T13:56:49;20.20;53.00
19039;DHT22;9652;49.014;12.052;2023-04-24T13:59:16;20.20;51.40
19039;DHT22;9652;49.014;12.052;2023-04-24T14:01:43;20.10;51.40
19039;DHT22;9652;49.014;12.052;2023-04-24T14:04:11;20.00;52.10
19039;DHT22;9652;49.014;12.052;2023-04-24T14:06:39;19.90;52.00
19039;DHT22;9652;49.014;12.052;2023-04-24T14:09:06;19.80;52.30
19039;DHT22;9652;49.014;12.052;2023-04-24T14:11:34;19.70;52.90
19039;DHT22;9652;49.014;12.052;2023-04-24T14:14:01;19.60;52.90
19039;DHT22;9652;49.014;12.052;2023-04-24T14:16:29;19.50;52.60
19039;DHT22;9652;49.014;12.052;2023-04-24T14:18:57;19.50;52.10
19039;DHT22;9652;49.014;12.052;2023-04-24T14:21:24;19.40;52.40
19039;DHT22;9652;49.014;12.052;2023-04-24T14:23:52;19.30;53.20
19039;DHT22;9652;49.014;12.052;2023-04-24T14:26:19;19.20;53.60
19039;DHT22;9652;49.014;12.052;2023-04-24T14:28:47;19.20;53.50
19039;DHT22;9652;49.014;12.052;2023-04-24T14:31:14;19.20;53.50
19039;DHT22;9652;49.014;12.052;2023-04-24T14:33:41;19.20;54.00
19039;DHT22;9652;49.014;12.052;2023-04-24T14:36:08;19.20;53.30
19039;DHT22;9652;49.014;12.052;2023-04-24T14:38:35;19.30;53.30
19039;DHT22;9652;49.014;12.052;2023-04-24T14:41:03;19.30;52.20
19039;DHT22;9652;49.014;12.052;2023-04-24T14:43:35;19.30;52.80
19039;DHT22;9652;49.014;12.052;2023-04-24T14:46:03;19.20;52.90
19039;DHT22;9652;49.014;12.052;2023-04-24T14:48:30;19.20;53.10
19039;DHT22;9652;49.014;12.052;2023-04-24T14:50:57;19.20;52.50
19039;DHT22;9652;49.014;12.052;2023-04-24T14:53:24;19.10;52.20
19039;DHT22;9652;49.014;12.052;2023-04-24T14:55:51;19.10;52.30
19039;DHT22;9652;49.014;12.052;2023-04-24T14:58:20;19.00;52.40
19039;DHT22;9652;49.014;12.052;2023-04-24T15:00:47;18.90;52.00
19039;DHT22;9652;49.014;12.052;2023-04-24T15:03:15;18.90;52.30
19039;DHT22;9652;49.014;12.052;2023-04-24T15:05:42;18.90;52.60
19039;DHT22;9652;49.014;12.052;2023-04-24T15:08:09;18.90;52.90
19039;DHT22;9652;49.014;12.052;2023-04-24T15:10:36;18.90;52.50
19039;DHT22;9652;49.014;12.052;2023-04-24T15:13:04;19.00;52.90
19039;DHT22;9652;49.014;12.052;2023-04-24T15:15:32;19.10;52.80
19039;DHT22;9652;49.014;12.052;2023-04-24T15:17:59;19.10;51.40
19039;DHT22;9652;49.014;12.052;2023-04-24T15:20:26;19.10;51.80
19039;DHT22;9652;49.014;12.052;2023-04-24T15:22:53;19.10;51.90
19039;DHT22;9652;49.014;12.052;2023-04-24T15:25:20;19.00;51.50
19039;DHT22;9652;49.014;12.052;2023-04-24T15:27:47;18.90;51.40
19039;DHT22;9652;49.014;12.052;2023-04-24T15:30:14;18.80;51.50
19039;DHT22;9652;49.014;12.052;2023-04-24T15:32:43;18.80;51.80
19039;DHT22;9652;49.014;12.052;2023-04-24T15:35:10;18.70;52.00
19039;DHT22;9652;49.014;12.052;2023-04-24T15:37:37;18.70;52.90
19039;DHT22;9652;49.014;12.052;2023-04-24T15:40:06;18.90;54.00
19039;DHT22;9652;49.014;12.052;2023-04-24T15:42:34;19.10;54.10